Oldebroek, Netherlands
Current Conditions -  °F | °C
As of 2:55 PM on Sunday 25 Jan 2015 (Local Time) from EHDL Reporting Station
Haze Haze  
Wind Chill: 33°   Ceiling: 400
Heat Index: 37°   Visibility: 2.6mi
Dew Point: 37°   Wind: 6mph
Humidity: 100%   Direction: 220°SW
Pressure: 30.33"   Gusts: NA
Location:  52.45°N, 5.9°E
Report Text: EHDL 251355Z AUTO 22005KT 4300 BR BKN004 OVC006 03/03 Q1027 YLO
Loading
Personal Weather Stations






























Interactive Weather Map New forecast layout! Learn more

10-Day Weather Forecast

Advertisements
Track Severe Weather on mobile